Time;durP1;ratioP1;P1;durP2;ratioP2;P2;SDS_P1;SDS_P2;PMS_P1;PMS_P2;Temp;Humidity;BMP_temperature;BMP_pressure;BME280_temperature;BME280_humidity;BME280_pressure;Samples;Min_cycle;Max_cycle;Signal;HPM_P1;HPM_P2
2022/12/27 00:02:01;;;;;;;3.55;1.30;;;7.40;99.90;;;;;;5071090;28;20589;-50
2022/12/27 00:04:27;;;;;;;1.20;1.20;;;7.40;99.90;;;;;;5071007;28;20115;-53
2022/12/27 00:06:53;;;;;;;1.20;1.20;;;7.50;99.90;;;;;;5072210;28;20025;-51
2022/12/27 00:09:18;;;;;;;1.45;1.35;;;7.40;99.90;;;;;;5071922;28;20056;-52
2022/12/27 00:11:44;;;;;;;2.00;1.40;;;7.40;99.90;;;;;;5072247;28;20025;-50
2022/12/27 00:14:10;;;;;;;3.05;2.85;;;7.40;99.90;;;;;;5072139;28;20023;-54
2022/12/27 00:16:36;;;;;;;1.30;1.30;;;7.30;99.90;;;;;;5070665;28;20021;-52
2022/12/27 00:19:02;;;;;;;1.55;1.45;;;7.30;99.90;;;;;;5071602;28;20033;-52
2022/12/27 00:21:28;;;;;;;1.25;1.25;;;7.40;99.90;;;;;;5071812;28;20029;-54
2022/12/27 00:23:56;;;;;;;1.67;1.58;;;7.30;99.90;;;;;;5072025;28;20028;-51
2022/12/27 00:26:33;;;;;;;1.30;1.20;;;7.40;99.90;;;;;;5069714;28;20029;-51
2022/12/27 00:28:59;;;;;;;2.10;1.33;;;7.30;99.90;;;;;;5068310;28;20029;-53
2022/12/27 00:31:28;;;;;;;3.13;1.38;;;7.20;99.90;;;;;;5053593;28;20052;-51
2022/12/27 00:33:55;;;;;;;1.55;1.45;;;7.20;99.90;;;;;;5052811;28;20021;-52
2022/12/27 00:36:23;;;;;;;1.25;1.25;;;7.20;99.90;;;;;;5051755;28;20356;-52
2022/12/27 00:38:50;;;;;;;1.20;1.20;;;7.20;99.90;;;;;;5051852;28;20021;-53
2022/12/27 00:41:16;;;;;;;1.52;1.45;;;7.20;99.90;;;;;;5053601;28;20036;-55
2022/12/27 00:43:42;;;;;;;1.98;1.23;;;7.30;99.90;;;;;;5071543;28;20178;-53
2022/12/27 00:46:09;;;;;;;1.40;1.30;;;7.30;99.90;;;;;;5071791;28;20032;-51
2022/12/27 00:48:35;;;;;;;2.00;1.67;;;7.30;99.90;;;;;;5071120;28;20131;-49
2022/12/27 00:51:16;;;;;;;1.30;1.30;;;7.20;99.90;;;;;;5069981;28;20028;-53
2022/12/27 00:53:42;;;;;;;2.70;1.60;;;7.30;99.90;;;;;;5052724;28;20021;-51
2022/12/27 00:56:14;;;;;;;1.60;1.50;;;7.20;99.90;;;;;;5068007;28;20024;-51
2022/12/27 00:58:40;;;;;;;1.60;1.50;;;7.20;99.90;;;;;;5061688;28;20025;-54
2022/12/27 01:01:15;;;;;;;2.38;1.60;;;7.20;99.90;;;;;;5056769;28;20369;-49
2022/12/27 01:03:41;;;;;;;3.00;1.70;;;7.30;99.90;;;;;;5066475;28;20016;-52
2022/12/27 01:06:11;;;;;;;1.45;1.35;;;7.30;99.90;;;;;;5071193;28;20064;-50
2022/12/27 01:08:37;;;;;;;2.10;2.00;;;7.30;99.90;;;;;;5071111;28;20028;-52
2022/12/27 01:11:03;;;;;;;1.83;1.73;;;7.20;99.90;;;;;;5070774;28;20048;-52
2022/12/27 01:13:29;;;;;;;1.50;1.50;;;7.30;99.90;;;;;;5062161;28;20476;-53
2022/12/27 01:15:55;;;;;;;2.08;1.88;;;7.20;99.90;;;;;;5071117;28;20146;-51
2022/12/27 01:18:21;;;;;;;1.80;1.70;;;7.20;99.90;;;;;;5069545;28;20131;-52
2022/12/27 01:20:47;;;;;;;2.55;1.65;;;7.30;99.90;;;;;;5071157;28;20433;-53
2022/12/27 01:23:12;;;;;;;1.55;1.50;;;7.30;99.90;;;;;;5063095;28;20032;-52
2022/12/27 01:25:38;;;;;;;4.15;1.63;;;7.30;99.90;;;;;;5068269;28;20062;-51
2022/12/27 01:28:04;;;;;;;1.30;1.30;;;7.30;99.90;;;;;;5070675;28;20111;-50
2022/12/27 01:30:29;;;;;;;2.03;1.70;;;7.30;99.90;;;;;;5052444;28;20040;-50
2022/12/27 01:32:55;;;;;;;1.70;1.60;;;7.30;99.90;;;;;;5064039;28;20029;-51
2022/12/27 01:35:21;;;;;;;6.60;1.80;;;7.20;99.90;;;;;;5056241;28;20445;-49
2022/12/27 01:37:46;;;;;;;2.03;1.77;;;7.20;99.90;;;;;;5055169;28;20502;-54
2022/12/27 01:40:12;;;;;;;1.70;1.60;;;7.20;99.90;;;;;;5053631;28;20056;-55
2022/12/27 01:42:54;;;;;;;2.88;1.60;;;7.20;99.90;;;;;;5070546;28;20093;-51
2022/12/27 01:45:20;;;;;;;1.85;1.75;;;7.10;99.90;;;;;;5054989;28;20025;-51
2022/12/27 01:47:57;;;;;;;4.03;1.85;;;7.20;99.90;;;;;;5055028;28;20031;-49
2022/12/27 01:50:38;;;;;;;1.60;1.58;;;7.10;99.90;;;;;;5055780;28;20898;-51
2022/12/27 01:53:20;;;;;;;3.10;1.60;;;7.10;99.90;;;;;;5061773;28;20021;-52
2022/12/27 01:55:52;;;;;;;2.70;1.70;;;7.10;99.90;;;;;;5074579;28;20108;-53
2022/12/27 01:58:44;;;;;;;4.10;1.70;;;7.00;99.90;;;;;;5060801;28;20029;-53
2022/12/27 02:01:17;;;;;;;9.60;2.20;;;7.00;99.90;;;;;;5054569;28;20454;-51
2022/12/27 02:03:48;;;;;;;4.90;1.90;;;7.00;99.90;;;;;;5061221;28;20037;-50
2022/12/27 02:06:14;;;;;;;1.88;1.77;;;7.00;99.90;;;;;;5074202;28;20025;-51
2022/12/27 02:09:18;;;;;;;2.65;1.83;;;7.10;99.90;;;;;;5073425;28;20044;-50
2022/12/27 02:11:50;;;;;;;1.70;1.60;;;7.00;99.90;;;;;;5073459;28;20057;-51
2022/12/27 02:14:27;;;;;;;2.20;2.00;;;6.90;99.90;;;;;;5055359;28;20083;-51
2022/12/27 02:16:56;;;;;;;2.50;1.75;;;7.00;99.90;;;;;;5054412;28;20025;-54
2022/12/27 02:19:41;;;;;;;2.45;1.90;;;7.00;99.90;;;;;;5067358;28;20454;-52
2022/12/27 02:22:14;;;;;;;2.38;1.90;;;7.00;99.90;;;;;;5054804;28;20045;-48
2022/12/27 02:24:55;;;;;;;2.08;1.92;;;6.90;99.90;;;;;;5058246;28;20028;-52
2022/12/27 02:27:31;;;;;;;4.82;3.03;;;6.90;99.90;;;;;;5072866;28;20353;-49
2022/12/27 02:30:06;;;;;;;2.80;1.70;;;6.90;99.90;;;;;;5062088;28;20031;-49
2022/12/27 02:32:47;;;;;;;3.53;1.80;;;6.90;99.90;;;;;;5072842;28;20043;-51
2022/12/27 02:35:30;;;;;;;1.80;1.70;;;6.80;99.90;;;;;;5073048;28;20028;-54
2022/12/27 02:38:03;;;;;;;2.35;2.10;;;6.80;99.90;;;;;;5066843;28;20017;-54
2022/12/27 02:54:47;;;;;;;1.77;1.63;;;6.60;99.90;;;;;;5054899;28;20027;-55
2022/12/27 02:57:24;;;;;;;2.00;1.90;;;6.60;99.90;;;;;;5073017;28;20687;-53
2022/12/27 03:03:20;;;;;;;5.40;1.90;;;6.60;99.90;;;;;;5063044;28;20439;-51
2022/12/27 03:06:38;;;;;;;2.30;1.80;;;6.50;99.90;;;;;;5071977;28;20036;-54
2022/12/27 03:08:55;;;;;;;3.40;2.20;;;6.50;99.90;;;;;;5066300;28;20059;-54
2022/12/27 03:17:27;;;;;;;2.25;1.70;;;6.50;99.90;;;;;;5073118;28;20478;-52
2022/12/27 03:25:34;;;;;;;2.67;2.20;;;6.30;99.90;;;;;;5066395;28;20043;-55
2022/12/27 03:33:46;;;;;;;3.58;3.22;;;6.30;99.90;;;;;;5055181;28;20043;-52
2022/12/27 03:39:30;;;;;;;1.90;1.80;;;6.20;99.90;;;;;;5071409;28;20082;-53
2022/12/27 03:44:51;;;;;;;3.33;2.05;;;6.20;99.90;;;;;;5066163;28;20083;-53
2022/12/27 03:47:20;;;;;;;1.70;1.60;;;6.20;99.90;;;;;;5052620;28;20029;-52
2022/12/27 03:50:10;;;;;;;3.25;2.00;;;6.20;99.90;;;;;;5053644;28;20033;-54
2022/12/27 03:52:59;;;;;;;2.53;1.90;;;6.20;99.90;;;;;;5063788;28;20026;-53
2022/12/27 03:55:25;;;;;;;2.53;2.33;;;6.20;99.90;;;;;;5054550;28;20530;-50
2022/12/27 03:57:52;;;;;;;2.88;2.22;;;6.20;99.90;;;;;;5061619;28;20442;-51
2022/12/27 04:00:18;;;;;;;2.20;2.00;;;6.20;99.90;;;;;;5071970;28;20108;-49
2022/12/27 04:02:43;;;;;;;8.38;2.00;;;6.20;99.90;;;;;;5072558;28;20099;-49
2022/12/27 04:05:10;;;;;;;3.08;2.03;;;6.10;99.90;;;;;;5064992;28;20058;-49
2022/12/27 04:07:35;;;;;;;4.13;2.30;;;6.10;99.90;;;;;;5052258;28;20120;-51
2022/12/27 04:34:38;;;;;;;2.17;2.00;;;5.80;99.90;;;;;;5072171;28;20078;-51
2022/12/27 04:37:04;;;;;;;2.00;1.90;;;5.70;99.90;;;;;;5068605;28;20452;-49
2022/12/27 04:39:30;;;;;;;2.00;1.80;;;5.70;99.90;;;;;;5071320;28;20028;-52
2022/12/27 04:55:51;;;;;;;2.40;2.20;;;5.60;99.90;;;;;;5071590;28;20036;-51
2022/12/27 04:58:16;;;;;;;2.15;1.98;;;5.50;99.90;;;;;;5071464;28;20028;-51
2022/12/27 05:03:26;;;;;;;2.85;2.20;;;5.50;99.90;;;;;;5051277;28;20416;-49
2022/12/27 05:05:52;;;;;;;3.40;2.45;;;5.50;99.90;;;;;;5052941;28;20029;-49
2022/12/27 05:14:00;;;;;;;3.22;1.77;;;5.50;99.90;;;;;;5069868;28;20075;-51
2022/12/27 05:16:26;;;;;;;2.45;2.25;;;5.40;99.90;;;;;;5071011;28;20036;-49
2022/12/27 05:18:52;;;;;;;2.90;2.38;;;5.40;99.90;;;;;;5061547;28;20448;-49
2022/12/27 05:21:18;;;;;;;5.38;2.60;;;5.40;99.90;;;;;;5051168;28;20056;-51
2022/12/27 05:26:29;;;;;;;;;;;5.30;99.90;;;;;;5065196;28;20565;-54
2022/12/27 05:28:57;;;;;;;4.15;2.25;;;5.40;99.90;;;;;;5056714;28;19916;-52
2022/12/27 05:31:24;;;;;;;2.00;1.90;;;5.30;99.90;;;;;;5070756;28;20036;-51
2022/12/27 05:33:51;;;;;;;6.15;3.53;;;5.30;99.90;;;;;;5070963;28;20476;-49
2022/12/27 05:36:17;;;;;;;2.65;2.45;;;5.30;99.90;;;;;;5070550;28;20491;-54
2022/12/27 05:38:43;;;;;;;3.28;2.42;;;5.30;99.90;;;;;;5070667;28;20025;-52
2022/12/27 05:41:09;;;;;;;5.07;2.45;;;5.20;99.90;;;;;;5070950;28;20541;-51
2022/12/27 05:43:35;;;;;;;3.00;2.67;;;5.10;99.90;;;;;;5071005;28;20090;-52
2022/12/27 05:46:05;;;;;;;2.38;2.17;;;5.20;99.90;;;;;;5070800;28;20037;-54
2022/12/27 05:48:31;;;;;;;5.80;3.38;;;5.20;99.90;;;;;;5070551;28;20118;-49
2022/12/27 05:50:56;;;;;;;2.80;2.60;;;5.20;99.90;;;;;;5063971;28;20450;-52
2022/12/27 05:53:22;;;;;;;3.83;2.22;;;5.10;99.90;;;;;;5056818;28;20024;-52
2022/12/27 05:55:55;;;;;;;2.65;2.40;;;5.10;99.90;;;;;;5070672;28;20016;-51
2022/12/27 05:58:21;;;;;;;2.50;2.30;;;5.10;99.90;;;;;;5056803;28;20029;-53
2022/12/27 06:00:47;;;;;;;3.45;2.38;;;5.10;99.90;;;;;;5051280;28;20061;-51
2022/12/27 06:03:12;;;;;;;29.02;11.43;;;5.00;99.90;;;;;;5069499;28;20073;-51
2022/12/27 06:05:38;;;;;;;3.47;2.70;;;5.10;99.90;;;;;;5070736;28;20123;-53
2022/12/27 06:08:04;;;;;;;2.95;2.15;;;5.00;99.90;;;;;;5065283;28;20645;-50
2022/12/27 06:10:30;;;;;;;2.35;2.25;;;4.90;99.90;;;;;;5065130;28;20144;-54
2022/12/27 06:12:59;;;;;;;2.80;2.60;;;4.90;99.90;;;;;;5055827;28;20035;-50
2022/12/27 06:15:24;;;;;;;3.13;2.60;;;4.80;99.90;;;;;;5064341;28;20074;-53
2022/12/27 06:17:50;;;;;;;3.25;2.38;;;4.80;99.90;;;;;;5060247;28;20405;-52
2022/12/27 06:20:16;;;;;;;5.72;2.65;;;4.70;99.90;;;;;;5061427;28;20038;-50
2022/12/27 06:22:42;;;;;;;5.40;2.58;;;4.70;99.90;;;;;;5055260;28;20029;-51
2022/12/27 06:25:07;;;;;;;2.78;2.53;;;4.70;99.90;;;;;;5054208;28;20044;-52
2022/12/27 06:27:33;;;;;;;2.80;2.60;;;4.70;99.90;;;;;;5067948;28;20823;-50
2022/12/27 06:29:59;;;;;;;3.65;2.70;;;4.60;99.90;;;;;;5074037;28;20487;-49
2022/12/27 06:32:24;;;;;;;3.95;2.47;;;4.60;99.90;;;;;;5073553;28;20636;-52
2022/12/27 06:34:50;;;;;;;3.38;3.08;;;4.50;99.90;;;;;;5067203;28;20021;-51
2022/12/27 06:37:16;;;;;;;3.83;3.28;;;4.50;99.90;;;;;;5053730;28;20029;-52
2022/12/27 06:39:42;;;;;;;4.63;2.75;;;4.40;99.90;;;;;;5071560;28;20629;-52
2022/12/27 06:42:08;;;;;;;2.60;2.40;;;4.40;99.90;;;;;;5053774;28;20068;-51
2022/12/27 06:44:34;;;;;;;4.32;3.28;;;4.30;99.90;;;;;;5067068;28;20043;-52
2022/12/27 06:47:00;;;;;;;5.53;3.00;;;4.30;99.90;;;;;;5064961;28;20024;-49
2022/12/27 06:49:25;;;;;;;3.03;2.83;;;4.40;99.90;;;;;;5072324;28;20024;-52
2022/12/27 06:51:51;;;;;;;5.45;3.58;;;4.30;99.90;;;;;;5069073;28;20061;-51
2022/12/27 06:54:17;;;;;;;4.88;3.22;;;4.30;99.90;;;;;;5057805;28;20055;-50
2022/12/27 06:56:42;;;;;;;3.50;2.85;;;4.40;99.90;;;;;;5059590;28;20057;-52
2022/12/27 06:59:08;;;;;;;5.97;3.92;;;4.30;99.90;;;;;;5063646;28;20032;-51
2022/12/27 07:01:34;;;;;;;6.82;4.25;;;4.30;99.90;;;;;;5063926;28;20027;-53
2022/12/27 07:04:00;;;;;;;3.80;3.13;;;4.30;99.90;;;;;;5073446;28;20020;-51
2022/12/27 07:06:28;;;;;;;4.35;2.60;;;4.30;99.90;;;;;;5073264;28;20062;-48
2022/12/27 07:08:55;;;;;;;4.50;2.83;;;4.20;99.90;;;;;;5073230;28;20029;-51
2022/12/27 07:11:21;;;;;;;5.43;3.20;;;4.30;99.90;;;;;;5073349;28;20028;-48
2022/12/27 07:13:52;;;;;;;2.78;2.58;;;4.30;99.90;;;;;;5054138;28;20029;-51
2022/12/27 07:16:20;;;;;;;3.70;2.63;;;4.30;99.90;;;;;;5069087;28;20017;-52
2022/12/27 07:18:46;;;;;;;4.75;2.85;;;4.30;99.90;;;;;;5062141;28;20027;-51
2022/12/27 07:21:15;;;;;;;2.33;2.22;;;4.30;99.90;;;;;;5072596;28;20032;-50
2022/12/27 07:23:41;;;;;;;6.25;2.50;;;4.30;99.90;;;;;;5072518;28;20069;-49
2022/12/27 07:26:13;;;;;;;3.03;2.72;;;4.30;99.90;;;;;;5072810;28;20070;-49
2022/12/27 07:28:39;;;;;;;4.88;3.50;;;4.30;99.90;;;;;;5072649;28;20024;-49
2022/12/27 07:31:10;;;;;;;5.18;4.22;;;4.30;99.90;;;;;;5072588;28;20124;-50
2022/12/27 07:33:37;;;;;;;6.75;3.70;;;4.30;99.90;;;;;;5071570;28;20519;-53
2022/12/27 07:36:04;;;;;;;10.45;7.85;;;4.30;99.90;;;;;;5070902;28;20028;-50
2022/12/27 07:38:30;;;;;;;5.20;3.08;;;4.30;99.90;;;;;;5052795;28;20125;-53
2022/12/27 07:41:00;;;;;;;5.32;3.97;;;4.30;99.90;;;;;;5051715;28;20104;-50
2022/12/27 07:43:29;;;;;;;12.85;5.03;;;4.20;99.90;;;;;;5065328;28;20033;-49
2022/12/27 07:45:54;;;;;;;7.65;5.80;;;4.10;99.90;;;;;;5051583;28;20050;-50
2022/12/27 07:48:20;;;;;;;4.45;3.08;;;4.10;99.90;;;;;;5051477;28;20481;-54
2022/12/27 07:50:55;;;;;;;6.80;3.30;;;4.00;99.90;;;;;;5051968;28;20087;-52
2022/12/27 07:53:21;;;;;;;3.00;2.72;;;4.00;99.90;;;;;;5066428;28;20035;-49
2022/12/27 07:55:47;;;;;;;3.88;2.80;;;4.00;99.90;;;;;;5071968;28;20409;-61
2022/12/27 07:58:13;;;;;;;6.28;2.70;;;4.00;99.90;;;;;;5063490;28;20045;-52
2022/12/27 08:00:39;;;;;;;4.93;2.95;;;3.90;99.90;;;;;;5074178;28;20068;-50
2022/12/27 08:03:05;;;;;;;5.80;3.30;;;3.90;99.90;;;;;;5092444;28;20611;-49
2022/12/27 08:05:30;;;;;;;4.40;2.80;;;3.90;99.90;;;;;;5073992;28;20028;-54
2022/12/27 08:08:00;;;;;;;6.18;2.80;;;3.80;99.90;;;;;;5072183;28;20492;-48
2022/12/27 08:10:26;;;;;;;4.07;3.65;;;3.90;99.90;;;;;;5071402;28;20044;-50
2022/12/27 08:12:51;;;;;;;3.28;2.40;;;3.80;99.90;;;;;;5071955;28;20412;-51
2022/12/27 08:15:17;;;;;;;2.58;2.47;;;3.80;99.90;;;;;;5071983;28;20103;-50
2022/12/27 08:17:43;;;;;;;3.20;3.00;;;3.70;99.90;;;;;;5072007;28;20035;-50
2022/12/27 08:20:14;;;;;;;8.05;4.15;;;3.70;99.90;;;;;;5071120;28;20020;-53
2022/12/27 08:22:40;;;;;;;6.10;3.47;;;3.70;99.90;;;;;;5070319;28;20055;-54
2022/12/27 08:25:06;;;;;;;3.67;3.30;;;3.60;99.90;;;;;;5071762;28;20029;-50
2022/12/27 08:27:33;;;;;;;5.18;3.45;;;3.60;99.90;;;;;;5071129;28;20128;-51
2022/12/27 08:29:58;;;;;;;3.75;3.33;;;3.70;99.90;;;;;;5071603;28;20027;-53
2022/12/27 08:32:24;;;;;;;8.43;2.97;;;3.70;99.90;;;;;;5071309;28;20452;-51
2022/12/27 08:34:49;;;;;;;3.95;2.80;;;3.80;99.90;;;;;;5087873;28;20024;-50
2022/12/27 08:37:15;;;;;;;8.50;4.05;;;3.90;99.90;;;;;;5074306;28;20428;-52
2022/12/27 08:39:41;;;;;;;5.70;4.45;;;4.00;99.90;;;;;;5071019;28;20034;-55
2022/12/27 08:42:13;;;;;;;4.13;2.60;;;4.00;99.90;;;;;;5086407;28;20055;-54
2022/12/27 08:44:38;;;;;;;3.38;2.58;;;4.00;99.90;;;;;;5087036;28;20024;-52
2022/12/27 08:47:04;;;;;;;6.45;3.00;;;4.00;99.90;;;;;;5085433;28;20422;-50
2022/12/27 08:49:30;;;;;;;4.35;3.17;;;4.10;99.90;;;;;;5091299;28;20016;-52
2022/12/27 08:51:56;;;;;;;4.72;2.90;;;4.00;99.90;;;;;;5053148;28;20074;-56
2022/12/27 08:54:22;;;;;;;6.03;2.90;;;4.10;99.90;;;;;;5070933;28;20029;-62
2022/12/27 08:56:48;;;;;;;6.20;4.28;;;4.10;99.90;;;;;;5069945;28;20341;-55
2022/12/27 08:59:14;;;;;;;5.50;3.50;;;4.20;99.90;;;;;;5054933;28;20085;-53
2022/12/27 09:01:40;;;;;;;9.23;3.88;;;4.20;99.90;;;;;;5052648;28;20384;-51
2022/12/27 09:04:06;;;;;;;3.42;2.95;;;4.30;99.90;;;;;;5071083;28;20020;-56
2022/12/27 09:06:31;;;;;;;3.10;2.80;;;4.40;99.90;;;;;;5071193;28;20036;-54
2022/12/27 09:08:58;;;;;;;5.22;2.85;;;4.40;99.90;;;;;;5071105;28;20024;-52
2022/12/27 09:11:32;;;;;;;10.70;4.53;;;4.30;99.90;;;;;;5070676;28;20033;-50
2022/12/27 09:14:00;;;;;;;9.35;5.45;;;4.30;99.90;;;;;;5067554;28;20032;-53
2022/12/27 09:16:27;;;;;;;8.50;3.15;;;4.40;99.90;;;;;;5056253;28;20028;-51
2022/12/27 09:18:54;;;;;;;4.18;3.28;;;4.40;99.90;;;;;;5070928;28;20062;-53
2022/12/27 09:21:21;;;;;;;7.25;4.53;;;4.50;99.90;;;;;;5071095;28;20044;-55
2022/12/27 09:23:48;;;;;;;7.65;4.70;;;4.50;99.90;;;;;;5071029;28;20570;-54
2022/12/27 09:26:16;;;;;;;3.97;3.00;;;4.50;99.90;;;;;;5070035;28;20028;-53
2022/12/27 09:28:42;;;;;;;5.72;3.60;;;4.60;99.90;;;;;;5070318;28;20104;-54
2022/12/27 09:31:11;;;;;;;5.03;3.42;;;4.80;99.90;;;;;;5070285;28;20181;-51
2022/12/27 09:33:36;;;;;;;4.30;3.40;;;5.70;99.90;;;;;;5070832;28;20021;-52
2022/12/27 09:36:11;;;;;;;2.60;2.22;;;7.20;99.90;;;;;;5070975;28;20025;-53
2022/12/27 09:38:37;;;;;;;4.72;2.55;;;8.60;98.60;;;;;;5051186;28;20069;-52
2022/12/27 09:41:11;;;;;;;3.08;2.15;;;10.30;94.30;;;;;;5050971;28;20025;-54
2022/12/27 09:44:11;;;;;;;2.72;2.20;;;10.40;93.80;;;;;;5048831;28;20028;-54
2022/12/27 09:47:00;;;;;;;1.77;1.67;;;11.50;90.80;;;;;;5050353;28;20490;-54
2022/12/27 09:49:35;;;;;;;6.28;4.20;;;12.50;85.40;;;;;;5049709;28;20511;-51
2022/12/27 09:52:13;;;;;;;3.50;2.95;;;12.70;81.80;;;;;;5050803;28;20045;-56
2022/12/27 09:54:42;;;;;;;3.00;2.00;;;12.00;85.20;;;;;;5063062;28;20021;-56
2022/12/27 09:57:18;;;;;;;4.50;2.45;;;12.40;82.80;;;;;;5073910;28;20016;-55
2022/12/27 09:59:51;;;;;;;3.78;2.28;;;12.40;82.60;;;;;;5073767;28;20448;-55
2022/12/27 10:02:25;;;;;;;21.70;9.18;;;13.40;77.80;;;;;;5073681;28;20027;-52
2022/12/27 10:04:52;;;;;;;8.23;3.00;;;13.80;77.40;;;;;;5054422;28;20448;-53
2022/12/27 10:07:53;;;;;;;29.05;12.88;;;14.40;75.00;;;;;;5073821;28;20032;-53
2022/12/27 10:10:55;;;;;;;3.35;1.88;;;13.40;76.30;;;;;;5071916;28;20121;-50
2022/12/27 10:13:30;;;;;;;6.82;2.08;;;14.50;71.90;;;;;;5077770;28;20020;-51
2022/12/27 10:16:01;;;;;;;17.00;7.20;;;15.10;71.30;;;;;;5094467;28;20528;-54
2022/12/27 10:18:48;;;;;;;5.55;1.83;;;14.70;69.40;;;;;;5094026;28;20543;-53
2022/12/27 10:21:21;;;;;;;3.17;1.80;;;15.20;69.50;;;;;;5067215;28;20036;-55
2022/12/27 10:24:12;;;;;;;5.20;2.17;;;15.40;67.00;;;;;;5069225;28;20475;-55
2022/12/27 10:26:38;;;;;;;3.10;2.00;;;15.80;66.20;;;;;;5073548;28;20052;-53
2022/12/27 10:29:33;;;;;;;3.33;2.03;;;15.60;65.50;;;;;;5082311;28;20020;-52
2022/12/27 10:31:58;;;;;;;3.53;2.20;;;15.20;65.40;;;;;;5072483;28;20048;-55
2022/12/27 10:34:24;;;;;;;2.22;1.77;;;14.20;67.70;;;;;;5072516;28;20039;-55
2022/12/27 10:36:51;;;;;;;3.67;2.30;;;14.40;68.00;;;;;;5073581;28;20384;-53
2022/12/27 10:39:27;;;;;;;3.53;2.08;;;14.60;66.80;;;;;;5070836;28;20021;-56
2022/12/27 10:41:53;;;;;;;3.00;1.90;;;14.90;66.90;;;;;;5072030;28;20119;-55
2022/12/27 10:44:21;;;;;;;3.35;1.70;;;15.10;66.00;;;;;;5073082;28;20112;-55
2022/12/27 10:46:54;;;;;;;4.95;2.03;;;16.40;64.10;;;;;;5073329;28;20353;-53
2022/12/27 10:49:31;;;;;;;3.35;1.80;;;16.20;62.90;;;;;;5073567;28;20020;-54
2022/12/27 10:52:14;;;;;;;3.53;1.90;;;17.10;60.40;;;;;;5073544;28;20032;-54
2022/12/27 10:54:53;;;;;;;2.63;1.15;;;18.00;56.80;;;;;;5068028;28;20013;-55
2022/12/27 10:57:34;;;;;;;4.95;1.45;;;18.50;54.50;;;;;;5053096;28;20473;-56
2022/12/27 11:00:12;;;;;;;1.85;1.17;;;17.80;54.30;;;;;;5053174;28;20033;-57
2022/12/27 11:03:02;;;;;;;9.80;2.40;;;16.90;54.80;;;;;;5049802;28;20039;-56
2022/12/27 11:05:57;;;;;;;1.38;1.13;;;15.60;57.00;;;;;;5043074;28;20660;-54
2022/12/27 11:08:23;;;;;;;2.35;1.35;;;16.80;55.10;;;;;;5041447;28;20076;-58
2022/12/27 11:11:09;;;;;;;2.85;1.30;;;17.90;54.50;;;;;;5042763;28;20753;-52
2022/12/27 11:13:34;;;;;;;3.05;1.15;;;18.50;52.10;;;;;;5040529;28;20037;-52
2022/12/27 11:16:00;;;;;;;3.20;1.17;;;18.50;52.00;;;;;;5040738;28;20056;-53
2022/12/27 11:21:49;;;;;;;3.70;1.70;;;17.10;54.40;;;;;;5041799;28;20075;-58
2022/12/27 11:24:16;;;;;;;8.18;2.65;;;17.70;51.40;;;;;;5040577;28;20508;-55
2022/12/27 11:26:56;;;;;;;4.50;1.75;;;16.30;53.60;;;;;;5040867;28;20032;-56
2022/12/27 11:29:25;;;;;;;6.70;1.50;;;17.90;51.90;;;;;;5040986;28;20542;-53
2022/12/27 11:31:52;;;;;;;6.63;2.10;;;19.30;49.00;;;;;;5042307;28;20043;-55
2022/12/27 11:34:24;;;;;;;1.65;1.30;;;17.70;51.10;;;;;;5042013;28;20021;-55
2022/12/27 11:36:53;;;;;;;25.98;9.32;;;17.90;51.30;;;;;;5042553;28;20594;-52
2022/12/27 11:39:38;;;;;;;27.40;8.40;;;15.60;52.80;;;;;;5038543;28;20037;-54
2022/12/27 11:42:39;;;;;;;13.98;3.97;;;17.00;52.40;;;;;;5039861;28;20024;-54
2022/12/27 11:45:16;;;;;;;1.80;1.20;;;16.70;51.70;;;;;;5042857;28;20067;-54
2022/12/27 11:48:02;;;;;;;5.35;1.70;;;17.90;50.20;;;;;;5041963;28;20422;-52
2022/12/27 11:51:02;;;;;;;3.10;1.30;;;16.70;51.60;;;;;;5042240;28;20040;-53
2022/12/27 11:53:58;;;;;;;4.13;2.22;;;15.80;51.40;;;;;;5041925;28;20021;-53
2022/12/27 11:56:32;;;;;;;2.00;1.67;;;14.80;54.80;;;;;;5042741;28;20025;-52
2022/12/27 11:59:16;;;;;;;;;;;15.70;53.10;;;;;;5043346;28;20033;-53
2022/12/27 12:01:57;;;;;;;4.47;1.95;;;15.60;53.80;;;;;;5041131;28;19940;-52
2022/12/27 12:04:34;;;;;;;9.07;3.65;;;14.50;55.00;;;;;;5041068;28;20041;-53
2022/12/27 12:07:17;;;;;;;2.45;1.55;;;12.80;57.40;;;;;;5041625;28;20033;-51
2022/12/27 12:10:15;;;;;;;11.95;5.78;;;14.20;57.90;;;;;;5040855;28;20135;-53
2022/12/27 12:12:56;;;;;;;3.63;1.90;;;12.60;60.30;;;;;;5056163;28;20033;-55
2022/12/27 12:15:40;;;;;;;8.38;4.05;;;11.90;64.70;;;;;;5040361;28;20048;-55
2022/12/27 12:18:40;;;;;;;11.63;5.18;;;10.90;65.40;;;;;;5040913;28;20040;-56
2022/12/27 12:21:30;;;;;;;10.02;5.75;;;10.60;66.90;;;;;;5041205;28;20079;-54
2022/12/27 12:24:07;;;;;;;3.65;2.20;;;10.50;67.80;;;;;;5041688;28;20037;-54
2022/12/27 12:27:07;;;;;;;6.07;2.55;;;10.90;68.30;;;;;;5041179;28;20476;-54
2022/12/27 12:30:05;;;;;;;3.53;2.00;;;11.10;66.10;;;;;;5042597;28;20049;-52
2022/12/27 12:32:51;;;;;;;4.38;1.77;;;11.00;66.80;;;;;;5041051;28;20025;-52
2022/12/27 12:36:14;;;;;;;7.43;4.28;;;11.40;66.90;;;;;;5042432;28;20056;-52
2022/12/27 12:38:59;;;;;;;2.78;1.77;;;10.90;67.90;;;;;;5058620;28;20174;-53
2022/12/27 12:41:49;;;;;;;12.55;2.45;;;11.30;66.90;;;;;;5057605;28;20044;-51
2022/12/27 12:44:43;;;;;;;3.22;2.40;;;10.90;67.20;;;;;;5052110;28;20040;-54
2022/12/27 12:47:24;;;;;;;2.67;1.92;;;10.40;68.80;;;;;;5060109;28;20037;-53
2022/12/27 12:49:56;;;;;;;8.25;2.13;;;10.50;70.30;;;;;;5061059;28;20098;-51
2022/12/27 12:53:00;;;;;;;2.25;1.90;;;10.10;70.30;;;;;;5041580;28;20041;-55
2022/12/27 12:55:47;;;;;;;4.30;2.58;;;10.30;71.70;;;;;;5037970;28;20116;-52
2022/12/27 12:58:34;;;;;;;6.65;1.75;;;10.10;70.70;;;;;;5038205;28;20652;-55
2022/12/27 13:01:42;;;;;;;6.05;3.65;;;10.50;71.70;;;;;;5055627;28;20044;-54
2022/12/27 13:04:27;;;;;;;3.15;1.90;;;10.50;69.00;;;;;;5057616;28;20055;-54
2022/12/27 13:06:58;;;;;;;2.33;1.67;;;10.90;69.40;;;;;;5070798;28;20036;-52
2022/12/27 13:10:06;;;;;;;6.57;2.75;;;10.80;70.30;;;;;;5070252;28;20049;-53
2022/12/27 13:12:44;;;;;;;1.98;1.60;;;11.90;65.30;;;;;;5072097;28;20044;-53
2022/12/27 13:15:27;;;;;;;13.27;8.10;;;13.40;62.90;;;;;;5070357;28;20021;-51
2022/12/27 13:18:17;;;;;;;1.50;1.33;;;13.70;60.00;;;;;;5070525;28;20115;-55
2022/12/27 13:20:59;;;;;;;2.58;1.73;;;14.40;58.00;;;;;;5050088;28;20033;-51
2022/12/27 13:23:49;;;;;;;9.95;2.33;;;14.70;57.10;;;;;;5048863;28;20029;-52
2022/12/27 13:26:49;;;;;;;3.97;2.35;;;15.00;57.50;;;;;;5060912;28;20098;-52
2022/12/27 13:29:36;;;;;;;2.05;1.38;;;14.20;57.30;;;;;;5073427;28;20100;-53
2022/12/27 13:32:10;;;;;;;2.10;1.98;;;14.80;56.30;;;;;;5074112;28;20357;-53
2022/12/27 13:35:00;;;;;;;3.35;2.00;;;13.60;58.70;;;;;;5072619;28;20032;-53
2022/12/27 13:37:44;;;;;;;2.17;1.40;;;13.40;59.20;;;;;;5067466;28;20021;-54
2022/12/27 13:40:49;;;;;;;4.47;1.63;;;14.00;59.90;;;;;;5055667;28;20175;-54
2022/12/27 13:43:52;;;;;;;2.15;1.67;;;14.10;57.60;;;;;;5063662;28;20025;-53
2022/12/27 13:46:29;;;;;;;1.30;1.20;;;12.80;59.40;;;;;;5074915;28;20367;-53
2022/12/27 13:49:01;;;;;;;4.13;2.35;;;12.70;60.80;;;;;;5075090;28;20107;-52
2022/12/27 13:51:50;;;;;;;1.70;1.35;;;12.30;60.20;;;;;;5074638;28;20082;-54
2022/12/27 13:54:49;;;;;;;2.15;1.40;;;12.60;61.30;;;;;;5073546;28;20025;-52
2022/12/27 13:57:39;;;;;;;3.28;1.60;;;12.40;61.00;;;;;;5074600;28;20102;-53
2022/12/27 14:00:21;;;;;;;5.90;2.95;;;12.00;63.00;;;;;;5074234;28;20028;-51
2022/12/27 14:03:24;;;;;;;4.82;1.60;;;11.00;64.90;;;;;;5074332;28;20026;-54
2022/12/27 14:05:49;;;;;;;1.55;1.45;;;10.80;65.70;;;;;;5064722;28;20040;-56
2022/12/27 14:08:15;;;;;;;2.10;1.70;;;10.40;67.00;;;;;;5053794;28;20024;-56
2022/12/27 14:10:47;;;;;;;17.90;2.50;;;10.10;69.20;;;;;;5054091;28;20049;-55
2022/12/27 14:13:37;;;;;;;4.70;1.97;;;9.90;69.50;;;;;;5054097;28;20025;-55
2022/12/27 14:16:15;;;;;;;9.70;2.15;;;10.00;68.60;;;;;;5054323;28;20029;-54
2022/12/27 14:19:11;;;;;;;5.93;1.80;;;10.30;68.40;;;;;;5069679;28;20052;-55
2022/12/27 14:21:55;;;;;;;2.03;1.80;;;10.70;68.00;;;;;;5073847;28;20105;-54
2022/12/27 14:24:39;;;;;;;3.58;1.67;;;11.00;66.40;;;;;;5054061;28;20078;-56
2022/12/27 14:27:26;;;;;;;3.88;1.70;;;10.80;67.00;;;;;;5054022;28;20029;-53
2022/12/27 14:30:00;;;;;;;2.97;1.63;;;10.40;67.00;;;;;;5053925;28;20108;-52
2022/12/27 14:32:28;;;;;;;3.20;2.20;;;9.80;69.30;;;;;;5052577;28;20487;-52
2022/12/27 14:34:54;;;;;;;2.33;2.13;;;9.20;71.70;;;;;;5060476;28;20033;-55
2022/12/27 14:37:33;;;;;;;32.70;16.65;;;8.70;73.40;;;;;;5073002;28;20028;-55
2022/12/27 14:40:17;;;;;;;4.07;2.20;;;8.20;74.00;;;;;;5073078;28;20546;-52
2022/12/27 14:42:51;;;;;;;2.47;2.22;;;8.10;75.80;;;;;;5073241;28;20039;-55
2022/12/27 14:45:36;;;;;;;2.78;2.40;;;7.90;76.50;;;;;;5072104;28;20028;-52
2022/12/27 14:48:44;;;;;;;9.00;2.97;;;7.60;77.40;;;;;;5073736;28;20377;-55
2022/12/27 14:51:38;;;;;;;12.20;5.40;;;7.30;79.40;;;;;;5073803;28;20032;-51
2022/12/27 14:54:36;;;;;;;4.63;1.95;;;7.00;82.10;;;;;;5073472;28;20033;-54
2022/12/27 14:57:28;;;;;;;5.85;2.00;;;6.80;84.10;;;;;;5073688;28;20020;-53
2022/12/27 15:00:15;;;;;;;4.65;2.53;;;6.50;86.10;;;;;;5073512;28;20029;-50
2022/12/27 15:02:59;;;;;;;3.70;2.10;;;6.30;88.20;;;;;;5073462;28;20016;-55